sensor_id;sensor_type;location;lat;lon;timestamp;pressure;altitude;pressure_sealevel;temperature;humidity
21300;BME280;10809;49.476;11.016;2023-02-11T00:02:07;100271.53;;;-1.42;58.24
21300;BME280;10809;49.476;11.016;2023-02-11T00:04:37;100264.56;;;-1.43;58.00
21300;BME280;10809;49.476;11.016;2023-02-11T00:07:08;100261.94;;;-1.45;58.36
21300;BME280;10809;49.476;11.016;2023-02-11T00:09:38;100260.16;;;-1.47;57.75
21300;BME280;10809;49.476;11.016;2023-02-11T00:12:09;100260.97;;;-1.48;58.05
21300;BME280;10809;49.476;11.016;2023-02-11T00:14:39;100249.69;;;-1.50;58.20
21300;BME280;10809;49.476;11.016;2023-02-11T00:17:09;100247.91;;;-1.51;58.03
21300;BME280;10809;49.476;11.016;2023-02-11T00:19:40;100244.44;;;-1.53;58.19
21300;BME280;10809;49.476;11.016;2023-02-11T00:22:10;100248.72;;;-1.54;58.30
21300;BME280;10809;49.476;11.016;2023-02-11T00:24:41;100246.97;;;-1.55;58.25
21300;BME280;10809;49.476;11.016;2023-02-11T00:27:11;100240.91;;;-1.55;58.03
21300;BME280;10809;49.476;11.016;2023-02-11T00:29:42;100232.19;;;-1.57;58.09
21300;BME280;10809;49.476;11.016;2023-02-11T00:32:12;100233.94;;;-1.58;58.00
21300;BME280;10809;49.476;11.016;2023-02-11T00:34:43;100231.28;;;-1.59;58.39
21300;BME280;10809;49.476;11.016;2023-02-11T00:37:13;100244.28;;;-1.59;58.55
21300;BME280;10809;49.476;11.016;2023-02-11T00:39:45;100241.69;;;-1.59;58.09
21300;BME280;10809;49.476;11.016;2023-02-11T00:42:16;100234.72;;;-1.60;58.32
21300;BME280;10809;49.476;11.016;2023-02-11T00:44:48;100236.44;;;-1.61;58.43
21300;BME280;10809;49.476;11.016;2023-02-11T00:47:20;100232.97;;;-1.61;58.13
21300;BME280;10809;49.476;11.016;2023-02-11T00:49:51;100237.28;;;-1.62;58.24
21300;BME280;10809;49.476;11.016;2023-02-11T00:52:21;100246.81;;;-1.62;58.50
21300;BME280;10809;49.476;11.016;2023-02-11T00:54:51;100250.25;;;-1.62;58.33
21300;BME280;10809;49.476;11.016;2023-02-11T00:57:23;100241.56;;;-1.64;58.35
21300;BME280;10809;49.476;11.016;2023-02-11T00:59:57;100237.19;;;-1.65;58.39
21300;BME280;10809;49.476;11.016;2023-02-11T01:02:27;100227.66;;;-1.66;58.93
21300;BME280;10809;49.476;11.016;2023-02-11T01:04:58;100228.50;;;-1.68;58.48
21300;BME280;10809;49.476;11.016;2023-02-11T01:07:29;100232.78;;;-1.69;58.81
21300;BME280;10809;49.476;11.016;2023-02-11T01:09:59;100235.34;;;-1.70;58.54
21300;BME280;10809;49.476;11.016;2023-02-11T01:12:33;100223.19;;;-1.73;58.05
21300;BME280;10809;49.476;11.016;2023-02-11T01:15:04;100217.97;;;-1.74;58.35
21300;BME280;10809;49.476;11.016;2023-02-11T01:17:36;100223.97;;;-1.75;58.47
21300;BME280;10809;49.476;11.016;2023-02-11T01:20:10;100215.31;;;-1.76;58.32
21300;BME280;10809;49.476;11.016;2023-02-11T01:22:43;100210.09;;;-1.77;58.34
21300;BME280;10809;49.476;11.016;2023-02-11T01:25:13;100206.63;;;-1.78;58.69
21300;BME280;10809;49.476;11.016;2023-02-11T01:27:44;100206.56;;;-1.79;58.52
21300;BME280;10809;49.476;11.016;2023-02-11T01:30:14;100212.63;;;-1.80;58.72
21300;BME280;10809;49.476;11.016;2023-02-11T01:32:44;100200.47;;;-1.81;58.70
21300;BME280;10809;49.476;11.016;2023-02-11T01:35:15;100198.72;;;-1.82;58.25
21300;BME280;10809;49.476;11.016;2023-02-11T01:37:45;100204.75;;;-1.83;58.70
21300;BME280;10809;49.476;11.016;2023-02-11T01:40:16;100214.28;;;-1.82;58.71
21300;BME280;10809;49.476;11.016;2023-02-11T01:42:48;100206.47;;;-1.84;58.52
21300;BME280;10809;49.476;11.016;2023-02-11T01:48:57;100196.97;;;-1.83;58.90
21300;BME280;10809;49.476;11.016;2023-02-11T01:51:27;100190.00;;;-1.84;58.98
21300;BME280;10809;49.476;11.016;2023-02-11T01:53:59;100192.59;;;-1.84;58.79
21300;BME280;10809;49.476;11.016;2023-02-11T01:56:52;100193.53;;;-1.82;58.92
21300;BME280;10809;49.476;11.016;2023-02-11T02:00:07;100187.41;;;-1.84;58.79
21300;BME280;10809;49.476;11.016;2023-02-11T02:05:54;100171.00;;;-1.83;58.63
21300;BME280;10809;49.476;11.016;2023-02-11T02:08:31;100175.31;;;-1.84;58.72
21300;BME280;10809;49.476;11.016;2023-02-11T02:11:05;100167.53;;;-1.84;58.83
21300;BME280;10809;49.476;11.016;2023-02-11T02:13:36;100173.63;;;-1.83;58.83
21300;BME280;10809;49.476;11.016;2023-02-11T02:16:11;100172.72;;;-1.84;58.81
21300;BME280;10809;49.476;11.016;2023-02-11T02:18:59;100177.94;;;-1.82;58.88
21300;BME280;10809;49.476;11.016;2023-02-11T02:30:15;100152.06;;;-1.79;58.81
21300;BME280;10809;49.476;11.016;2023-02-11T02:38:43;100132.22;;;-1.77;59.25
21300;BME280;10809;49.476;11.016;2023-02-11T02:41:16;100126.13;;;-1.78;58.95
21300;BME280;10809;49.476;11.016;2023-02-11T02:43:49;100126.13;;;-1.78;58.92
21300;BME280;10809;49.476;11.016;2023-02-11T02:48:54;100129.63;;;-1.77;59.38
21300;BME280;10809;49.476;11.016;2023-02-11T03:02:57;100127.16;;;-1.71;59.01
21300;BME280;10809;49.476;11.016;2023-02-11T03:10:52;100139.34;;;-1.67;59.20
21300;BME280;10809;49.476;11.016;2023-02-11T03:13:29;100142.88;;;-1.65;59.43
21300;BME280;10809;49.476;11.016;2023-02-11T03:16:10;100137.72;;;-1.64;59.67
21300;BME280;10809;49.476;11.016;2023-02-11T03:18:44;100146.41;;;-1.60;59.39
21300;BME280;10809;49.476;11.016;2023-02-11T03:21:17;100142.16;;;-1.58;59.32
21300;BME280;10809;49.476;11.016;2023-02-11T03:23:52;100139.63;;;-1.55;59.72
21300;BME280;10809;49.476;11.016;2023-02-11T03:26:31;100143.13;;;-1.53;59.60
21300;BME280;10809;49.476;11.016;2023-02-11T03:29:13;100145.84;;;-1.49;59.49
21300;BME280;10809;49.476;11.016;2023-02-11T03:32:11;100139.81;;;-1.46;59.56
21300;BME280;10809;49.476;11.016;2023-02-11T03:35:19;100144.25;;;-1.42;59.61
21300;BME280;10809;49.476;11.016;2023-02-11T03:40:36;100130.47;;;-1.38;59.39
21300;BME280;10809;49.476;11.016;2023-02-11T03:43:21;100134.00;;;-1.36;59.59
21300;BME280;10809;49.476;11.016;2023-02-11T03:45:55;100121.88;;;-1.34;59.95
21300;BME280;10809;49.476;11.016;2023-02-11T03:48:32;100113.28;;;-1.32;59.86
21300;BME280;10809;49.476;11.016;2023-02-11T03:51:06;100109.84;;;-1.31;59.60
21300;BME280;10809;49.476;11.016;2023-02-11T03:53:40;100109.00;;;-1.30;59.83
21300;BME280;10809;49.476;11.016;2023-02-11T03:56:16;100114.22;;;-1.28;59.66
21300;BME280;10809;49.476;11.016;2023-02-11T03:58:48;100121.19;;;-1.27;59.81
21300;BME280;10809;49.476;11.016;2023-02-11T04:01:19;100122.06;;;-1.25;60.06
21300;BME280;10809;49.476;11.016;2023-02-11T04:03:49;100116.91;;;-1.24;59.75
21300;BME280;10809;49.476;11.016;2023-02-11T04:06:20;100110.88;;;-1.23;60.09
21300;BME280;10809;49.476;11.016;2023-02-11T04:08:50;100103.13;;;-1.21;59.65
21300;BME280;10809;49.476;11.016;2023-02-11T04:11:20;100104.84;;;-1.20;59.88
21300;BME280;10809;49.476;11.016;2023-02-11T04:13:51;100107.50;;;-1.19;59.59
21300;BME280;10809;49.476;11.016;2023-02-11T04:16:22;100108.41;;;-1.17;59.69
21300;BME280;10809;49.476;11.016;2023-02-11T04:18:52;100106.66;;;-1.16;59.71
21300;BME280;10809;49.476;11.016;2023-02-11T04:21:22;100105.84;;;-1.15;60.01
21300;BME280;10809;49.476;11.016;2023-02-11T04:23:53;100106.69;;;-1.15;59.66
21300;BME280;10809;49.476;11.016;2023-02-11T04:26:23;100087.66;;;-1.15;59.55
21300;BME280;10809;49.476;11.016;2023-02-11T04:28:54;100068.59;;;-1.14;59.63
21300;BME280;10809;49.476;11.016;2023-02-11T04:31:24;100066.00;;;-1.14;59.64
21300;BME280;10809;49.476;11.016;2023-02-11T04:33:55;100048.66;;;-1.15;59.76
21300;BME280;10809;49.476;11.016;2023-02-11T04:36:26;100051.25;;;-1.15;59.85
21300;BME280;10809;49.476;11.016;2023-02-11T04:38:56;100050.38;;;-1.16;59.77
21300;BME280;10809;49.476;11.016;2023-02-11T04:41:27;100051.25;;;-1.15;59.83
21300;BME280;10809;49.476;11.016;2023-02-11T04:43:57;100072.88;;;-1.16;60.06
21300;BME280;10809;49.476;11.016;2023-02-11T04:46:28;100063.41;;;-1.14;60.00
21300;BME280;10809;49.476;11.016;2023-02-11T04:48:59;100053.00;;;-1.14;60.06
21300;BME280;10809;49.476;11.016;2023-02-11T04:51:29;100041.75;;;-1.13;59.77
21300;BME280;10809;49.476;11.016;2023-02-11T04:54:00;100044.38;;;-1.12;60.16
21300;BME280;10809;49.476;11.016;2023-02-11T04:56:31;100053.09;;;-1.09;60.19
21300;BME280;10809;49.476;11.016;2023-02-11T04:59:03;100048.78;;;-1.09;60.41
21300;BME280;10809;49.476;11.016;2023-02-11T05:01:34;100052.22;;;-1.08;60.19
21300;BME280;10809;49.476;11.016;2023-02-11T05:04:05;100058.34;;;-1.06;60.35
21300;BME280;10809;49.476;11.016;2023-02-11T05:06:37;100062.69;;;-1.05;60.04
21300;BME280;10809;49.476;11.016;2023-02-11T05:09:11;100052.31;;;-1.04;60.23
21300;BME280;10809;49.476;11.016;2023-02-11T05:11:45;100061.91;;;-1.01;60.50
21300;BME280;10809;49.476;11.016;2023-02-11T05:14:15;100067.97;;;-1.01;60.27
21300;BME280;10809;49.476;11.016;2023-02-11T05:16:46;100073.19;;;-0.99;60.41
21300;BME280;10809;49.476;11.016;2023-02-11T05:19:17;100081.03;;;-0.98;60.26
21300;BME280;10809;49.476;11.016;2023-02-11T05:21:48;100078.41;;;-0.98;60.09
21300;BME280;10809;49.476;11.016;2023-02-11T05:24:20;100062.81;;;-0.98;60.44
21300;BME280;10809;49.476;11.016;2023-02-11T05:26:51;100051.59;;;-0.97;60.19
21300;BME280;10809;49.476;11.016;2023-02-11T05:29:22;100043.81;;;-0.97;60.15
21300;BME280;10809;49.476;11.016;2023-02-11T05:31:53;100047.25;;;-0.96;60.20
21300;BME280;10809;49.476;11.016;2023-02-11T05:34:23;100054.19;;;-0.97;60.33
21300;BME280;10809;49.476;11.016;2023-02-11T05:36:54;100049.00;;;-0.97;60.23
21300;BME280;10809;49.476;11.016;2023-02-11T05:39:25;100043.81;;;-0.97;60.34
21300;BME280;10809;49.476;11.016;2023-02-11T05:41:56;100032.53;;;-0.96;60.43
21300;BME280;10809;49.476;11.016;2023-02-11T05:44:27;100023.88;;;-0.95;60.66
21300;BME280;10809;49.476;11.016;2023-02-11T05:46:57;100024.81;;;-0.93;60.50
21300;BME280;10809;49.476;11.016;2023-02-11T05:49:28;100026.56;;;-0.92;60.54
21300;BME280;10809;49.476;11.016;2023-02-11T05:51:59;100025.75;;;-0.89;60.65
21300;BME280;10809;49.476;11.016;2023-02-11T05:54:31;100033.56;;;-0.88;60.90
21300;BME280;10809;49.476;11.016;2023-02-11T05:57:01;100044.00;;;-0.85;60.92
21300;BME280;10809;49.476;11.016;2023-02-11T05:59:32;100043.22;;;-0.81;60.70
21300;BME280;10809;49.476;11.016;2023-02-11T06:02:03;100055.41;;;-0.78;61.03
21300;BME280;10809;49.476;11.016;2023-02-11T06:04:34;100048.47;;;-0.76;60.95
21300;BME280;10809;49.476;11.016;2023-02-11T06:07:05;100044.22;;;-0.73;60.94
21300;BME280;10809;49.476;11.016;2023-02-11T06:09:36;100040.78;;;-0.70;60.90
21300;BME280;10809;49.476;11.016;2023-02-11T06:12:07;100032.19;;;-0.68;60.79
21300;BME280;10809;49.476;11.016;2023-02-11T06:14:38;100031.28;;;-0.68;60.72
21300;BME280;10809;49.476;11.016;2023-02-11T06:17:09;100019.19;;;-0.68;60.61
21300;BME280;10809;49.476;11.016;2023-02-11T06:19:39;100020.03;;;-0.67;60.71
21300;BME280;10809;49.476;11.016;2023-02-11T06:22:10;100029.59;;;-0.68;60.73
21300;BME280;10809;49.476;11.016;2023-02-11T06:24:41;100034.78;;;-0.68;60.80
21300;BME280;10809;49.476;11.016;2023-02-11T06:27:12;100020.88;;;-0.70;60.83
21300;BME280;10809;49.476;11.016;2023-02-11T06:29:42;100018.28;;;-0.70;60.68
21300;BME280;10809;49.476;11.016;2023-02-11T06:32:13;100010.44;;;-0.71;60.53
21300;BME280;10809;49.476;11.016;2023-02-11T06:34:44;100017.34;;;-0.72;60.84
21300;BME280;10809;49.476;11.016;2023-02-11T06:37:15;100026.91;;;-0.72;60.79
21300;BME280;10809;49.476;11.016;2023-02-11T06:39:45;100018.22;;;-0.73;60.91
21300;BME280;10809;49.476;11.016;2023-02-11T06:42:16;100018.19;;;-0.74;60.93
21300;BME280;10809;49.476;11.016;2023-02-11T06:44:46;100007.75;;;-0.76;61.04
21300;BME280;10809;49.476;11.016;2023-02-11T06:47:17;100018.19;;;-0.74;61.01
21300;BME280;10809;49.476;11.016;2023-02-11T06:49:48;100025.09;;;-0.75;60.96
21300;BME280;10809;49.476;11.016;2023-02-11T06:52:18;100019.06;;;-0.75;60.95
21300;BME280;10809;49.476;11.016;2023-02-11T06:54:49;100025.09;;;-0.75;61.02
21300;BME280;10809;49.476;11.016;2023-02-11T06:57:20;100036.41;;;-0.73;61.49
21300;BME280;10809;49.476;11.016;2023-02-11T06:59:51;100047.72;;;-0.72;61.17
21300;BME280;10809;49.476;11.016;2023-02-11T07:02:21;100040.78;;;-0.70;61.17
21300;BME280;10809;49.476;11.016;2023-02-11T07:04:52;100050.34;;;-0.71;61.02
21300;BME280;10809;49.476;11.016;2023-02-11T07:07:23;100056.41;;;-0.69;61.30
21300;BME280;10809;49.476;11.016;2023-02-11T07:09:54;100057.31;;;-0.67;61.34
21300;BME280;10809;49.476;11.016;2023-02-11T07:12:25;100056.47;;;-0.66;61.28
21300;BME280;10809;49.476;11.016;2023-02-11T07:14:56;100065.19;;;-0.64;61.44
21300;BME280;10809;49.476;11.016;2023-02-11T07:17:27;100060.91;;;-0.62;61.32
21300;BME280;10809;49.476;11.016;2023-02-11T07:19:58;100059.16;;;-0.60;61.33
21300;BME280;10809;49.476;11.016;2023-02-11T07:22:30;100056.59;;;-0.58;61.67
21300;BME280;10809;49.476;11.016;2023-02-11T07:25:00;100054.91;;;-0.56;61.40
21300;BME280;10809;49.476;11.016;2023-02-11T07:27:31;100047.16;;;-0.53;61.46
21300;BME280;10809;49.476;11.016;2023-02-11T07:30:03;100039.38;;;-0.52;62.02
21300;BME280;10809;49.476;11.016;2023-02-11T07:32:34;100038.56;;;-0.46;61.51
21300;BME280;10809;49.476;11.016;2023-02-11T07:35:05;100035.22;;;-0.41;61.96
21300;BME280;10809;49.476;11.016;2023-02-11T07:37:36;100040.53;;;-0.33;62.58
21300;BME280;10809;49.476;11.016;2023-02-11T07:40:07;100041.63;;;-0.19;63.37
21300;BME280;10809;49.476;11.016;2023-02-11T07:42:38;100038.50;;;0.04;64.32
21300;BME280;10809;49.476;11.016;2023-02-11T07:45:11;100039.75;;;0.32;64.64
21300;BME280;10809;49.476;11.016;2023-02-11T07:47:43;100047.91;;;0.60;64.54
21300;BME280;10809;49.476;11.016;2023-02-11T07:50:16;100045.59;;;0.86;64.18
21300;BME280;10809;49.476;11.016;2023-02-11T07:52:47;100057.09;;;1.05;62.81
21300;BME280;10809;49.476;11.016;2023-02-11T07:55:18;100062.44;;;1.17;62.48
21300;BME280;10809;49.476;11.016;2023-02-11T07:57:49;100055.56;;;1.25;61.67
21300;BME280;10809;49.476;11.016;2023-02-11T08:00:20;100047.78;;;1.29;61.62
21300;BME280;10809;49.476;11.016;2023-02-11T08:02:52;100072.19;;;1.34;61.46
21300;BME280;10809;49.476;11.016;2023-02-11T08:05:23;100076.53;;;1.37;61.31
21300;BME280;10809;49.476;11.016;2023-02-11T08:07:53;100073.97;;;1.40;61.62
21300;BME280;10809;49.476;11.016;2023-02-11T08:10:24;100077.50;;;1.45;61.54
21300;BME280;10809;49.476;11.016;2023-02-11T08:12:55;100082.72;;;1.46;60.85
21300;BME280;10809;49.476;11.016;2023-02-11T08:15:26;100085.34;;;1.48;61.33
21300;BME280;10809;49.476;11.016;2023-02-11T08:17:57;100070.56;;;1.48;61.28
21300;BME280;10809;49.476;11.016;2023-02-11T08:20:30;100061.00;;;1.49;60.92
21300;BME280;10809;49.476;11.016;2023-02-11T08:23:02;100068.81;;;1.49;61.07
21300;BME280;10809;49.476;11.016;2023-02-11T08:25:36;100063.59;;;1.49;61.20
21300;BME280;10809;49.476;11.016;2023-02-11T08:28:07;100060.09;;;1.48;60.82
21300;BME280;10809;49.476;11.016;2023-02-11T08:30:40;100055.78;;;1.49;60.91
21300;BME280;10809;49.476;11.016;2023-02-11T08:33:12;100053.16;;;1.49;60.90
21300;BME280;10809;49.476;11.016;2023-02-11T08:35:43;100060.13;;;1.50;61.16
21300;BME280;10809;49.476;11.016;2023-02-11T08:38:14;100067.97;;;1.50;61.06
21300;BME280;10809;49.476;11.016;2023-02-11T08:40:45;100059.28;;;1.51;61.30
21300;BME280;10809;49.476;11.016;2023-02-11T08:43:17;100057.53;;;1.53;60.79
21300;BME280;10809;49.476;11.016;2023-02-11T08:45:49;100057.56;;;1.56;61.08
21300;BME280;10809;49.476;11.016;2023-02-11T08:48:20;100056.72;;;1.57;61.19
21300;BME280;10809;49.476;11.016;2023-02-11T08:50:51;100062.81;;;1.60;60.86
21300;BME280;10809;49.476;11.016;2023-02-11T08:53:24;100069.81;;;1.61;61.40
21300;BME280;10809;49.476;11.016;2023-02-11T08:55:56;100071.56;;;1.64;61.65
21300;BME280;10809;49.476;11.016;2023-02-11T08:58:29;100066.38;;;1.67;61.21
21300;BME280;10809;49.476;11.016;2023-02-11T09:01:07;100073.38;;;1.71;61.42
21300;BME280;10809;49.476;11.016;2023-02-11T09:03:39;100070.78;;;1.74;61.24
21300;BME280;10809;49.476;11.016;2023-02-11T09:06:14;100069.94;;;1.78;61.29
21300;BME280;10809;49.476;11.016;2023-02-11T09:08:51;100062.13;;;1.82;61.28
21300;BME280;10809;49.476;11.016;2023-02-11T09:11:33;100054.34;;;1.87;61.23
21300;BME280;10809;49.476;11.016;2023-02-11T09:14:06;100050.03;;;1.92;61.95
21300;BME280;10809;49.476;11.016;2023-02-11T09:16:37;100043.09;;;2.00;61.87
21300;BME280;10809;49.476;11.016;2023-02-11T09:19:10;100037.91;;;2.06;61.46
21300;BME280;10809;49.476;11.016;2023-02-11T09:21:43;100027.50;;;2.12;61.60
21300;BME280;10809;49.476;11.016;2023-02-11T09:24:19;100028.41;;;2.21;61.83
21300;BME280;10809;49.476;11.016;2023-02-11T09:26:53;100044.16;;;2.32;62.18
21300;BME280;10809;49.476;11.016;2023-02-11T09:29:27;100032.00;;;2.41;61.74
21300;BME280;10809;49.476;11.016;2023-02-11T09:32:02;100035.56;;;2.51;62.24
21300;BME280;10809;49.476;11.016;2023-02-11T09:34:36;100038.19;;;2.59;61.90
21300;BME280;10809;49.476;11.016;2023-02-11T09:37:09;100044.34;;;2.67;62.03
21300;BME280;10809;49.476;11.016;2023-02-11T09:39:43;100046.97;;;2.76;61.71
21300;BME280;10809;49.476;11.016;2023-02-11T09:45:23;100047.09;;;3.00;62.33
21300;BME280;10809;49.476;11.016;2023-02-11T09:48:09;100051.47;;;3.13;62.05
21300;BME280;10809;49.476;11.016;2023-02-11T09:50:52;100047.13;;;3.27;62.20
21300;BME280;10809;49.476;11.016;2023-02-11T09:53:31;100048.88;;;3.40;62.14
21300;BME280;10809;49.476;11.016;2023-02-11T09:56:12;100047.13;;;3.54;62.18
21300;BME280;10809;49.476;11.016;2023-02-11T09:58:46;100041.03;;;3.62;61.94
21300;BME280;10809;49.476;11.016;2023-02-11T10:13:01;100060.19;;;4.06;61.38
21300;BME280;10809;49.476;11.016;2023-02-11T10:22:24;100061.91;;;4.28;60.47
21300;BME280;10809;49.476;11.016;2023-02-11T10:25:16;100062.78;;;4.31;60.82
21300;BME280;10809;49.476;11.016;2023-02-11T10:28:14;100067.16;;;4.32;60.45
21300;BME280;10809;49.476;11.016;2023-02-11T10:33:55;100061.91;;;4.35;60.82
21300;BME280;10809;49.476;11.016;2023-02-11T10:36:33;100052.28;;;4.35;60.64
21300;BME280;10809;49.476;11.016;2023-02-11T10:39:17;100049.66;;;4.37;60.29
21300;BME280;10809;49.476;11.016;2023-02-11T10:41:56;100050.50;;;4.39;60.72
21300;BME280;10809;49.476;11.016;2023-02-11T10:44:57;100051.38;;;4.41;60.62
21300;BME280;10809;49.476;11.016;2023-02-11T10:47:35;100054.88;;;4.43;60.25
21300;BME280;10809;49.476;11.016;2023-02-11T10:50:26;100054.88;;;4.43;60.22
21300;BME280;10809;49.476;11.016;2023-02-11T10:53:19;100055.75;;;4.43;60.13
21300;BME280;10809;49.476;11.016;2023-02-11T10:55:56;100058.34;;;4.45;60.56
21300;BME280;10809;49.476;11.016;2023-02-11T10:58:41;100054.00;;;4.45;60.22
21300;BME280;10809;49.476;11.016;2023-02-11T11:01:15;100048.75;;;4.47;60.25
21300;BME280;10809;49.476;11.016;2023-02-11T11:03:50;100046.13;;;4.47;59.98
21300;BME280;10809;49.476;11.016;2023-02-11T11:06:33;100042.63;;;4.48;60.48
21300;BME280;10809;49.476;11.016;2023-02-11T11:09:05;100054.88;;;4.49;60.45
21300;BME280;10809;49.476;11.016;2023-02-11T11:11:51;100049.63;;;4.49;60.32
21300;BME280;10809;49.476;11.016;2023-02-11T11:14:28;100048.72;;;4.50;60.18
21300;BME280;10809;49.476;11.016;2023-02-11T11:17:00;100051.34;;;4.50;60.04
21300;BME280;10809;49.476;11.016;2023-02-11T11:19:34;100044.38;;;4.52;60.44
21300;BME280;10809;49.476;11.016;2023-02-11T11:22:21;100040.88;;;4.50;59.74
21300;BME280;10809;49.476;11.016;2023-02-11T11:24:54;100046.09;;;4.51;60.15
21300;BME280;10809;49.476;11.016;2023-02-11T11:27:28;100049.63;;;4.52;60.17
21300;BME280;10809;49.476;11.016;2023-02-11T11:30:03;100044.38;;;4.52;59.96
21300;BME280;10809;49.476;11.016;2023-02-11T11:32:35;100049.59;;;4.53;59.90
21300;BME280;10809;49.476;11.016;2023-02-11T11:35:29;100053.97;;;4.53;59.75
21300;BME280;10809;49.476;11.016;2023-02-11T11:38:12;100055.69;;;4.54;60.11
21300;BME280;10809;49.476;11.016;2023-02-11T11:44:53;100041.75;;;4.50;60.27
21300;BME280;10809;49.476;11.016;2023-02-11T11:47:24;100048.72;;;4.51;60.08
21300;BME280;10809;49.476;11.016;2023-02-11T11:50:18;100042.59;;;4.49;60.34
21300;BME280;10809;49.476;11.016;2023-02-11T11:53:09;100046.13;;;4.50;60.23
21300;BME280;10809;49.476;11.016;2023-02-11T11:56:05;100032.13;;;4.49;60.29
21300;BME280;10809;49.476;11.016;2023-02-11T11:58:40;100039.13;;;4.49;60.48
21300;BME280;10809;49.476;11.016;2023-02-11T12:07:16;100046.09;;;4.53;60.29
21300;BME280;10809;49.476;11.016;2023-02-11T12:21:54;100032.94;;;4.65;60.54
21300;BME280;10809;49.476;11.016;2023-02-11T12:27:48;100028.53;;;4.73;60.40
21300;BME280;10809;49.476;11.016;2023-02-11T12:30:48;100035.50;;;4.77;60.48
21300;BME280;10809;49.476;11.016;2023-02-11T12:33:47;100037.25;;;4.79;60.01
21300;BME280;10809;49.476;11.016;2023-02-11T12:39:35;100029.38;;;4.82;60.31
21300;BME280;10809;49.476;11.016;2023-02-11T12:42:23;100027.59;;;4.83;60.18
21300;BME280;10809;49.476;11.016;2023-02-11T12:45:37;100017.97;;;4.85;59.93
21300;BME280;10809;49.476;11.016;2023-02-11T12:51:25;100015.34;;;4.88;60.16
21300;BME280;10809;49.476;11.016;2023-02-11T12:54:22;100012.69;;;4.89;60.01
21300;BME280;10809;49.476;11.016;2023-02-11T12:59:45;100015.28;;;4.94;60.15
21300;BME280;10809;49.476;11.016;2023-02-11T13:08:29;100000.34;;;5.08;60.47
21300;BME280;10809;49.476;11.016;2023-02-11T13:11:05;99987.19;;;5.12;60.42
21300;BME280;10809;49.476;11.016;2023-02-11T13:16:40;99981.88;;;5.18;59.71
21300;BME280;10809;49.476;11.016;2023-02-11T13:21:55;99986.25;;;5.22;59.64
21300;BME280;10809;49.476;11.016;2023-02-11T13:30:28;99982.75;;;5.22;59.27
21300;BME280;10809;49.476;11.016;2023-02-11T13:33:50;99981.88;;;5.20;58.96
21300;BME280;10809;49.476;11.016;2023-02-11T13:38:31;99984.53;;;5.14;58.86
21300;BME280;10809;49.476;11.016;2023-02-11T13:49:29;100003.00;;;5.02;58.73
21300;BME280;10809;49.476;11.016;2023-02-11T13:52:05;100000.41;;;5.00;58.77
21300;BME280;10809;49.476;11.016;2023-02-11T13:54:50;99996.91;;;4.98;59.14
21300;BME280;10809;49.476;11.016;2023-02-11T13:57:32;100002.16;;;4.97;59.27
21300;BME280;10809;49.476;11.016;2023-02-11T14:14:30;99995.22;;;4.90;59.38
21300;BME280;10809;49.476;11.016;2023-02-11T14:19:51;100001.31;;;4.89;59.40
21300;BME280;10809;49.476;11.016;2023-02-11T14:22:28;99989.97;;;4.87;59.39
21300;BME280;10809;49.476;11.016;2023-02-11T14:25:04;99988.22;;;4.87;59.92
21300;BME280;10809;49.476;11.016;2023-02-11T14:27:52;99989.09;;;4.88;59.78
21300;BME280;10809;49.476;11.016;2023-02-11T14:31:06;99986.44;;;4.89;59.92
21300;BME280;10809;49.476;11.016;2023-02-11T14:33:57;99984.69;;;4.91;59.96
21300;BME280;10809;49.476;11.016;2023-02-11T14:36:47;99989.94;;;4.94;59.74
21300;BME280;10809;49.476;11.016;2023-02-11T14:39:36;99989.03;;;4.97;59.79
21300;BME280;10809;49.476;11.016;2023-02-11T14:42:22;99983.78;;;4.97;59.87
21300;BME280;10809;49.476;11.016;2023-02-11T14:45:05;99987.28;;;4.97;59.93
21300;BME280;10809;49.476;11.016;2023-02-11T14:47:48;99987.28;;;4.99;59.97
21300;BME280;10809;49.476;11.016;2023-02-11T14:50:44;99985.50;;;4.98;59.97
21300;BME280;10809;49.476;11.016;2023-02-11T14:53:22;99991.66;;;4.98;59.55
21300;BME280;10809;49.476;11.016;2023-02-11T14:56:04;100000.41;;;4.97;59.68
21300;BME280;10809;49.476;11.016;2023-02-11T14:58:47;99988.16;;;4.96;59.21
21300;BME280;10809;49.476;11.016;2023-02-11T15:01:38;99988.16;;;4.95;59.38
21300;BME280;10809;49.476;11.016;2023-02-11T15:04:27;99988.16;;;4.93;59.61
21300;BME280;10809;49.476;11.016;2023-02-11T15:07:05;99989.94;;;4.91;59.61
21300;BME280;10809;49.476;11.016;2023-02-11T15:09:45;99990.81;;;4.90;59.73
21300;BME280;10809;49.476;11.016;2023-02-11T15:12:27;99993.44;;;4.89;59.77
21300;BME280;10809;49.476;11.016;2023-02-11T15:15:01;99997.84;;;4.87;59.67
21300;BME280;10809;49.476;11.016;2023-02-11T15:17:32;99999.59;;;4.86;59.67
21300;BME280;10809;49.476;11.016;2023-02-11T15:20:12;100009.22;;;4.84;59.89
21300;BME280;10809;49.476;11.016;2023-02-11T15:22:47;99998.72;;;4.83;59.61
21300;BME280;10809;49.476;11.016;2023-02-11T15:25:22;100013.63;;;4.81;59.54
21300;BME280;10809;49.476;11.016;2023-02-11T15:27:56;100008.41;;;4.79;59.90
21300;BME280;10809;49.476;11.016;2023-02-11T15:30:31;100000.53;;;4.76;59.87
21300;BME280;10809;49.476;11.016;2023-02-11T15:33:21;100008.41;;;4.75;59.55
21300;BME280;10809;49.476;11.016;2023-02-11T15:35:58;100008.44;;;4.73;59.81
21300;BME280;10809;49.476;11.016;2023-02-11T15:38:32;100016.31;;;4.72;60.02
21300;BME280;10809;49.476;11.016;2023-02-11T15:41:05;100015.44;;;4.70;59.89
21300;BME280;10809;49.476;11.016;2023-02-11T15:43:48;100015.44;;;4.68;60.18
21300;BME280;10809;49.476;11.016;2023-02-11T15:46:37;100016.28;;;4.67;59.63
21300;BME280;10809;49.476;11.016;2023-02-11T15:49:14;100015.44;;;4.65;59.64
21300;BME280;10809;49.476;11.016;2023-02-11T15:51:53;100014.56;;;4.63;60.23
21300;BME280;10809;49.476;11.016;2023-02-11T15:54:29;100016.31;;;4.64;60.23
21300;BME280;10809;49.476;11.016;2023-02-11T15:57:06;100023.34;;;4.62;60.01